sensor_id;sensor_type;location;lat;lon;timestamp;P1;durP1;ratioP1;P2;durP2;ratioP2
51082;SDS011;37131;42.694;23.350;2022-10-30T00:00:19;4.90;;;2.88;;
51082;SDS011;37131;42.694;23.350;2022-10-30T00:02:45;7.35;;;2.90;;
51082;SDS011;37131;42.694;23.350;2022-10-30T00:05:11;11.30;;;2.55;;
51082;SDS011;37131;42.694;23.350;2022-10-30T00:07:37;8.05;;;3.15;;
51082;SDS011;37131;42.694;23.350;2022-10-30T00:10:02;6.95;;;2.85;;
51082;SDS011;37131;42.694;23.350;2022-10-30T00:12:28;6.93;;;2.65;;
51082;SDS011;37131;42.694;23.350;2022-10-30T00:14:53;7.68;;;3.38;;
51082;SDS011;37131;42.694;23.350;2022-10-30T00:17:18;6.22;;;2.72;;
51082;SDS011;37131;42.694;23.350;2022-10-30T00:19:44;9.70;;;3.47;;
51082;SDS011;37131;42.694;23.350;2022-10-30T00:22:09;8.27;;;3.15;;
51082;SDS011;37131;42.694;23.350;2022-10-30T00:24:35;10.13;;;3.63;;
51082;SDS011;37131;42.694;23.350;2022-10-30T00:27:00;9.40;;;2.95;;
51082;SDS011;37131;42.694;23.350;2022-10-30T00:29:25;11.70;;;3.20;;
51082;SDS011;37131;42.694;23.350;2022-10-30T00:31:51;10.23;;;3.38;;
51082;SDS011;37131;42.694;23.350;2022-10-30T00:34:17;6.75;;;2.92;;
51082;SDS011;37131;42.694;23.350;2022-10-30T00:36:43;13.35;;;3.63;;
51082;SDS011;37131;42.694;23.350;2022-10-30T00:39:08;12.77;;;4.05;;
51082;SDS011;37131;42.694;23.350;2022-10-30T00:41:34;16.60;;;5.70;;
51082;SDS011;37131;42.694;23.350;2022-10-30T00:44:01;16.92;;;5.93;;
51082;SDS011;37131;42.694;23.350;2022-10-30T00:46:36;22.65;;;7.93;;
51082;SDS011;37131;42.694;23.350;2022-10-30T00:51:48;16.77;;;7.15;;
51082;SDS011;37131;42.694;23.350;2022-10-30T00:54:17;20.80;;;6.80;;
51082;SDS011;37131;42.694;23.350;2022-10-30T00:56:45;24.92;;;6.53;;
51082;SDS011;37131;42.694;23.350;2022-10-30T00:59:14;23.23;;;7.65;;
51082;SDS011;37131;42.694;23.350;2022-10-30T01:01:44;18.92;;;7.28;;
51082;SDS011;37131;42.694;23.350;2022-10-30T01:04:11;19.38;;;6.70;;
51082;SDS011;37131;42.694;23.350;2022-10-30T01:06:40;19.85;;;6.28;;
51082;SDS011;37131;42.694;23.350;2022-10-30T01:09:07;15.77;;;5.80;;
51082;SDS011;37131;42.694;23.350;2022-10-30T01:11:33;14.02;;;5.90;;
51082;SDS011;37131;42.694;23.350;2022-10-30T01:14:00;23.70;;;6.07;;
51082;SDS011;37131;42.694;23.350;2022-10-30T01:19:38;21.23;;;6.80;;
51082;SDS011;37131;42.694;23.350;2022-10-30T01:22:37;13.02;;;6.28;;
51082;SDS011;37131;42.694;23.350;2022-10-30T01:28:03;23.45;;;7.30;;
51082;SDS011;37131;42.694;23.350;2022-10-30T01:30:45;21.30;;;7.10;;
51082;SDS011;37131;42.694;23.350;2022-10-30T01:36:28;18.83;;;6.28;;
51082;SDS011;37131;42.694;23.350;2022-10-30T01:39:06;13.30;;;5.60;;
51082;SDS011;37131;42.694;23.350;2022-10-30T01:41:43;18.83;;;6.15;;
51082;SDS011;37131;42.694;23.350;2022-10-30T01:44:17;14.10;;;5.95;;
51082;SDS011;37131;42.694;23.350;2022-10-30T02:00:14;13.07;;;5.50;;
51082;SDS011;37131;42.694;23.350;2022-10-30T02:02:41;19.63;;;6.20;;
51082;SDS011;37131;42.694;23.350;2022-10-30T02:05:07;16.92;;;5.25;;
51082;SDS011;37131;42.694;23.350;2022-10-30T02:07:35;11.80;;;5.40;;
51082;SDS011;37131;42.694;23.350;2022-10-30T02:10:01;15.02;;;4.90;;
51082;SDS011;37131;42.694;23.350;2022-10-30T02:12:28;22.95;;;5.35;;
51082;SDS011;37131;42.694;23.350;2022-10-30T02:14:54;13.70;;;5.43;;
51082;SDS011;37131;42.694;23.350;2022-10-30T02:17:24;20.70;;;5.43;;
51082;SDS011;37131;42.694;23.350;2022-10-30T02:19:49;15.82;;;5.03;;
51082;SDS011;37131;42.694;23.350;2022-10-30T02:22:15;12.75;;;4.68;;
51082;SDS011;37131;42.694;23.350;2022-10-30T02:24:43;14.32;;;4.60;;
51082;SDS011;37131;42.694;23.350;2022-10-30T02:27:09;24.27;;;5.80;;
51082;SDS011;37131;42.694;23.350;2022-10-30T02:29:34;18.75;;;6.25;;
51082;SDS011;37131;42.694;23.350;2022-10-30T02:32:00;13.32;;;4.80;;
51082;SDS011;37131;42.694;23.350;2022-10-30T02:34:25;13.25;;;4.22;;
51082;SDS011;37131;42.694;23.350;2022-10-30T02:36:51;16.02;;;4.82;;
51082;SDS011;37131;42.694;23.350;2022-10-30T02:39:16;9.80;;;4.30;;
51082;SDS011;37131;42.694;23.350;2022-10-30T02:41:44;19.67;;;5.43;;
51082;SDS011;37131;42.694;23.350;2022-10-30T02:44:09;13.13;;;4.78;;
51082;SDS011;37131;42.694;23.350;2022-10-30T02:46:34;22.05;;;5.20;;
51082;SDS011;37131;42.694;23.350;2022-10-30T02:49:00;12.68;;;4.30;;
51082;SDS011;37131;42.694;23.350;2022-10-30T02:51:26;10.50;;;4.25;;
51082;SDS011;37131;42.694;23.350;2022-10-30T02:53:52;16.40;;;5.45;;
51082;SDS011;37131;42.694;23.350;2022-10-30T02:56:17;14.90;;;4.88;;
51082;SDS011;37131;42.694;23.350;2022-10-30T02:58:43;10.63;;;4.93;;
51082;SDS011;37131;42.694;23.350;2022-10-30T03:01:09;11.13;;;4.38;;
51082;SDS011;37131;42.694;23.350;2022-10-30T03:03:38;17.88;;;5.38;;
51082;SDS011;37131;42.694;23.350;2022-10-30T03:06:05;15.60;;;5.07;;
51082;SDS011;37131;42.694;23.350;2022-10-30T03:08:32;14.57;;;4.32;;
51082;SDS011;37131;42.694;23.350;2022-10-30T03:10:59;13.88;;;5.25;;
51082;SDS011;37131;42.694;23.350;2022-10-30T03:13:27;16.17;;;6.38;;
51082;SDS011;37131;42.694;23.350;2022-10-30T03:15:58;18.48;;;6.50;;
51082;SDS011;37131;42.694;23.350;2022-10-30T03:18:31;17.42;;;5.85;;
51082;SDS011;37131;42.694;23.350;2022-10-30T03:21:00;17.60;;;6.40;;
51082;SDS011;37131;42.694;23.350;2022-10-30T03:23:28;12.32;;;5.57;;
51082;SDS011;37131;42.694;23.350;2022-10-30T03:25:54;12.90;;;5.50;;
51082;SDS011;37131;42.694;23.350;2022-10-30T03:28:21;18.58;;;6.03;;
51082;SDS011;37131;42.694;23.350;2022-10-30T03:30:47;19.88;;;5.97;;
51082;SDS011;37131;42.694;23.350;2022-10-30T03:33:13;19.63;;;5.30;;
51082;SDS011;37131;42.694;23.350;2022-10-30T03:35:39;18.50;;;5.97;;
51082;SDS011;37131;42.694;23.350;2022-10-30T03:38:06;17.67;;;5.47;;
51082;SDS011;37131;42.694;23.350;2022-10-30T03:40:32;22.92;;;6.72;;
51082;SDS011;37131;42.694;23.350;2022-10-30T03:42:57;19.75;;;5.97;;
51082;SDS011;37131;42.694;23.350;2022-10-30T03:45:22;18.65;;;6.05;;
51082;SDS011;37131;42.694;23.350;2022-10-30T03:47:48;21.88;;;6.47;;
51082;SDS011;37131;42.694;23.350;2022-10-30T03:50:13;21.77;;;6.10;;
51082;SDS011;37131;42.694;23.350;2022-10-30T03:52:39;15.85;;;5.47;;
51082;SDS011;37131;42.694;23.350;2022-10-30T03:55:04;15.15;;;5.53;;
51082;SDS011;37131;42.694;23.350;2022-10-30T03:57:30;14.80;;;5.22;;
51082;SDS011;37131;42.694;23.350;2022-10-30T03:59:55;20.02;;;6.55;;
51082;SDS011;37131;42.694;23.350;2022-10-30T04:02:21;14.88;;;5.55;;
51082;SDS011;37131;42.694;23.350;2022-10-30T04:04:46;12.52;;;5.55;;
51082;SDS011;37131;42.694;23.350;2022-10-30T04:07:11;11.50;;;4.97;;
51082;SDS011;37131;42.694;23.350;2022-10-30T04:09:37;10.45;;;4.05;;
51082;SDS011;37131;42.694;23.350;2022-10-30T04:12:03;17.92;;;5.93;;
51082;SDS011;37131;42.694;23.350;2022-10-30T04:14:28;14.85;;;4.82;;
51082;SDS011;37131;42.694;23.350;2022-10-30T04:16:54;14.30;;;5.55;;
51082;SDS011;37131;42.694;23.350;2022-10-30T04:19:19;18.83;;;7.25;;
51082;SDS011;37131;42.694;23.350;2022-10-30T04:21:44;11.55;;;5.10;;
51082;SDS011;37131;42.694;23.350;2022-10-30T04:24:11;16.63;;;5.65;;
51082;SDS011;37131;42.694;23.350;2022-10-30T04:26:40;14.05;;;5.68;;
51082;SDS011;37131;42.694;23.350;2022-10-30T04:29:05;16.40;;;4.53;;
51082;SDS011;37131;42.694;23.350;2022-10-30T04:31:31;14.73;;;3.75;;
51082;SDS011;37131;42.694;23.350;2022-10-30T04:33:56;13.18;;;4.03;;
51082;SDS011;37131;42.694;23.350;2022-10-30T04:36:21;6.15;;;3.00;;
51082;SDS011;37131;42.694;23.350;2022-10-30T04:38:53;9.90;;;3.28;;
51082;SDS011;37131;42.694;23.350;2022-10-30T04:41:19;9.48;;;3.83;;
51082;SDS011;37131;42.694;23.350;2022-10-30T04:43:46;8.10;;;3.42;;
51082;SDS011;37131;42.694;23.350;2022-10-30T04:46:13;6.20;;;2.88;;
51082;SDS011;37131;42.694;23.350;2022-10-30T04:48:38;8.15;;;3.30;;
51082;SDS011;37131;42.694;23.350;2022-10-30T04:51:04;8.75;;;3.20;;
51082;SDS011;37131;42.694;23.350;2022-10-30T04:53:30;7.93;;;3.10;;
51082;SDS011;37131;42.694;23.350;2022-10-30T04:55:55;13.75;;;3.65;;
51082;SDS011;37131;42.694;23.350;2022-10-30T04:58:21;7.25;;;3.22;;
51082;SDS011;37131;42.694;23.350;2022-10-30T05:00:46;7.38;;;3.22;;
51082;SDS011;37131;42.694;23.350;2022-10-30T05:03:17;6.53;;;3.08;;
51082;SDS011;37131;42.694;23.350;2022-10-30T05:05:44;17.40;;;3.33;;
51082;SDS011;37131;42.694;23.350;2022-10-30T05:08:10;6.18;;;2.95;;
51082;SDS011;37131;42.694;23.350;2022-10-30T05:10:39;7.50;;;3.15;;
51082;SDS011;37131;42.694;23.350;2022-10-30T05:13:05;9.13;;;3.35;;
51082;SDS011;37131;42.694;23.350;2022-10-30T05:15:30;10.65;;;4.03;;
51082;SDS011;37131;42.694;23.350;2022-10-30T05:17:55;9.88;;;3.63;;
51082;SDS011;37131;42.694;23.350;2022-10-30T05:20:21;10.90;;;3.20;;
51082;SDS011;37131;42.694;23.350;2022-10-30T05:22:56;11.95;;;4.72;;
51082;SDS011;37131;42.694;23.350;2022-10-30T05:25:23;10.15;;;4.32;;
51082;SDS011;37131;42.694;23.350;2022-10-30T05:27:49;12.02;;;4.35;;
51082;SDS011;37131;42.694;23.350;2022-10-30T05:30:15;17.25;;;5.47;;
51082;SDS011;37131;42.694;23.350;2022-10-30T05:32:40;15.32;;;5.15;;
51082;SDS011;37131;42.694;23.350;2022-10-30T05:35:06;12.60;;;4.88;;
51082;SDS011;37131;42.694;23.350;2022-10-30T05:37:31;11.45;;;5.50;;
51082;SDS011;37131;42.694;23.350;2022-10-30T05:39:57;10.63;;;4.40;;
51082;SDS011;37131;42.694;23.350;2022-10-30T05:42:22;11.00;;;4.40;;
51082;SDS011;37131;42.694;23.350;2022-10-30T05:44:47;11.98;;;5.55;;
51082;SDS011;37131;42.694;23.350;2022-10-30T05:47:13;14.63;;;4.80;;
51082;SDS011;37131;42.694;23.350;2022-10-30T05:49:38;13.77;;;5.07;;
51082;SDS011;37131;42.694;23.350;2022-10-30T05:52:04;13.30;;;4.35;;
51082;SDS011;37131;42.694;23.350;2022-10-30T05:54:29;10.18;;;3.80;;
51082;SDS011;37131;42.694;23.350;2022-10-30T05:56:55;10.35;;;3.90;;
51082;SDS011;37131;42.694;23.350;2022-10-30T05:59:21;16.98;;;3.88;;
51082;SDS011;37131;42.694;23.350;2022-10-30T06:01:47;12.25;;;4.68;;
51082;SDS011;37131;42.694;23.350;2022-10-30T06:04:12;12.35;;;4.30;;
51082;SDS011;37131;42.694;23.350;2022-10-30T06:06:38;11.20;;;4.50;;
51082;SDS011;37131;42.694;23.350;2022-10-30T06:09:03;15.25;;;4.95;;
51082;SDS011;37131;42.694;23.350;2022-10-30T06:11:29;11.48;;;4.70;;
51082;SDS011;37131;42.694;23.350;2022-10-30T06:13:54;12.07;;;4.47;;
51082;SDS011;37131;42.694;23.350;2022-10-30T06:16:19;13.48;;;5.13;;
51082;SDS011;37131;42.694;23.350;2022-10-30T06:18:45;16.42;;;5.22;;
51082;SDS011;37131;42.694;23.350;2022-10-30T06:21:10;26.95;;;5.40;;
51082;SDS011;37131;42.694;23.350;2022-10-30T06:23:36;15.63;;;5.93;;
51082;SDS011;37131;42.694;23.350;2022-10-30T06:26:01;14.60;;;6.30;;
51082;SDS011;37131;42.694;23.350;2022-10-30T06:28:26;16.67;;;6.05;;
51082;SDS011;37131;42.694;23.350;2022-10-30T06:30:52;13.13;;;5.55;;
51082;SDS011;37131;42.694;23.350;2022-10-30T06:33:19;12.02;;;5.05;;
51082;SDS011;37131;42.694;23.350;2022-10-30T06:35:46;17.65;;;6.30;;
51082;SDS011;37131;42.694;23.350;2022-10-30T06:38:12;20.25;;;7.07;;
51082;SDS011;37131;42.694;23.350;2022-10-30T06:40:39;13.70;;;6.20;;
51082;SDS011;37131;42.694;23.350;2022-10-30T06:43:04;15.50;;;5.68;;
51082;SDS011;37131;42.694;23.350;2022-10-30T06:45:30;13.07;;;6.13;;
51082;SDS011;37131;42.694;23.350;2022-10-30T06:47:55;13.82;;;6.70;;
51082;SDS011;37131;42.694;23.350;2022-10-30T06:50:21;18.02;;;6.68;;
51082;SDS011;37131;42.694;23.350;2022-10-30T06:52:48;17.10;;;6.47;;
51082;SDS011;37131;42.694;23.350;2022-10-30T06:55:13;16.08;;;6.22;;
51082;SDS011;37131;42.694;23.350;2022-10-30T06:57:39;13.02;;;5.60;;
51082;SDS011;37131;42.694;23.350;2022-10-30T07:00:04;15.45;;;6.50;;
51082;SDS011;37131;42.694;23.350;2022-10-30T07:02:31;14.40;;;5.78;;
51082;SDS011;37131;42.694;23.350;2022-10-30T07:04:57;20.63;;;6.15;;
51082;SDS011;37131;42.694;23.350;2022-10-30T07:07:22;17.60;;;6.25;;
51082;SDS011;37131;42.694;23.350;2022-10-30T07:09:47;12.35;;;6.38;;
51082;SDS011;37131;42.694;23.350;2022-10-30T07:12:13;17.85;;;5.82;;
51082;SDS011;37131;42.694;23.350;2022-10-30T07:14:38;13.43;;;6.05;;
51082;SDS011;37131;42.694;23.350;2022-10-30T07:17:04;19.85;;;5.90;;
51082;SDS011;37131;42.694;23.350;2022-10-30T07:19:29;17.13;;;5.80;;
51082;SDS011;37131;42.694;23.350;2022-10-30T07:21:55;13.48;;;5.30;;
51082;SDS011;37131;42.694;23.350;2022-10-30T07:24:20;13.80;;;6.03;;
51082;SDS011;37131;42.694;23.350;2022-10-30T07:26:45;12.43;;;5.22;;
51082;SDS011;37131;42.694;23.350;2022-10-30T07:29:11;16.13;;;5.20;;
51082;SDS011;37131;42.694;23.350;2022-10-30T07:31:36;12.82;;;5.05;;
51082;SDS011;37131;42.694;23.350;2022-10-30T07:34:01;10.15;;;4.72;;
51082;SDS011;37131;42.694;23.350;2022-10-30T07:36:27;10.35;;;4.38;;
51082;SDS011;37131;42.694;23.350;2022-10-30T07:38:52;10.20;;;4.75;;
51082;SDS011;37131;42.694;23.350;2022-10-30T07:41:18;12.52;;;4.60;;
51082;SDS011;37131;42.694;23.350;2022-10-30T07:43:44;15.02;;;5.25;;
51082;SDS011;37131;42.694;23.350;2022-10-30T07:46:10;12.25;;;4.80;;
51082;SDS011;37131;42.694;23.350;2022-10-30T07:48:35;33.50;;;13.02;;
51082;SDS011;37131;42.694;23.350;2022-10-30T07:51:01;18.77;;;5.53;;
51082;SDS011;37131;42.694;23.350;2022-10-30T07:53:26;13.93;;;4.75;;
51082;SDS011;37131;42.694;23.350;2022-10-30T07:55:52;11.60;;;4.75;;
51082;SDS011;37131;42.694;23.350;2022-10-30T07:58:17;13.55;;;5.03;;
51082;SDS011;37131;42.694;23.350;2022-10-30T08:00:43;12.70;;;5.38;;
51082;SDS011;37131;42.694;23.350;2022-10-30T08:03:08;13.00;;;4.93;;
51082;SDS011;37131;42.694;23.350;2022-10-30T08:05:35;10.57;;;4.35;;
51082;SDS011;37131;42.694;23.350;2022-10-30T08:08:00;12.90;;;5.15;;
51082;SDS011;37131;42.694;23.350;2022-10-30T08:10:26;10.57;;;4.88;;
51082;SDS011;37131;42.694;23.350;2022-10-30T08:12:51;12.50;;;4.72;;
51082;SDS011;37131;42.694;23.350;2022-10-30T08:15:17;13.05;;;5.20;;
51082;SDS011;37131;42.694;23.350;2022-10-30T08:17:43;11.23;;;4.72;;
51082;SDS011;37131;42.694;23.350;2022-10-30T08:20:10;12.70;;;4.38;;
51082;SDS011;37131;42.694;23.350;2022-10-30T08:23:10;10.25;;;4.40;;
51082;SDS011;37131;42.694;23.350;2022-10-30T08:25:29;11.23;;;5.00;;
51082;SDS011;37131;42.694;23.350;2022-10-30T08:27:58;7.65;;;3.97;;
51082;SDS011;37131;42.694;23.350;2022-10-30T08:30:30;8.88;;;4.70;;
51082;SDS011;37131;42.694;23.350;2022-10-30T08:32:58;11.52;;;4.88;;
51082;SDS011;37131;42.694;23.350;2022-10-30T08:35:26;8.07;;;4.22;;
51082;SDS011;37131;42.694;23.350;2022-10-30T08:37:57;14.63;;;4.40;;
51082;SDS011;37131;42.694;23.350;2022-10-30T08:40:24;9.57;;;4.70;;
51082;SDS011;37131;42.694;23.350;2022-10-30T08:42:51;9.13;;;3.88;;
51082;SDS011;37131;42.694;23.350;2022-10-30T08:45:17;9.18;;;3.60;;
51082;SDS011;37131;42.694;23.350;2022-10-30T08:47:43;11.68;;;3.78;;
51082;SDS011;37131;42.694;23.350;2022-10-30T08:50:09;10.73;;;4.38;;
51082;SDS011;37131;42.694;23.350;2022-10-30T08:52:34;8.38;;;3.45;;
51082;SDS011;37131;42.694;23.350;2022-10-30T08:55:00;11.38;;;4.03;;
51082;SDS011;37131;42.694;23.350;2022-10-30T08:57:25;7.93;;;3.80;;
51082;SDS011;37131;42.694;23.350;2022-10-30T08:59:51;7.47;;;3.88;;
51082;SDS011;37131;42.694;23.350;2022-10-30T09:02:17;9.68;;;4.28;;
51082;SDS011;37131;42.694;23.350;2022-10-30T09:04:42;10.30;;;4.30;;
51082;SDS011;37131;42.694;23.350;2022-10-30T09:07:08;9.38;;;4.18;;
51082;SDS011;37131;42.694;23.350;2022-10-30T09:09:33;10.45;;;3.70;;
51082;SDS011;37131;42.694;23.350;2022-10-30T09:11:58;10.98;;;4.70;;
51082;SDS011;37131;42.694;23.350;2022-10-30T09:14:24;8.63;;;4.13;;
51082;SDS011;37131;42.694;23.350;2022-10-30T09:16:49;11.27;;;3.67;;
51082;SDS011;37131;42.694;23.350;2022-10-30T09:19:14;7.72;;;3.75;;
51082;SDS011;37131;42.694;23.350;2022-10-30T09:21:40;7.32;;;3.53;;
51082;SDS011;37131;42.694;23.350;2022-10-30T09:24:05;6.95;;;3.78;;
51082;SDS011;37131;42.694;23.350;2022-10-30T09:26:31;9.32;;;4.13;;
51082;SDS011;37131;42.694;23.350;2022-10-30T09:28:56;7.35;;;3.53;;
51082;SDS011;37131;42.694;23.350;2022-10-30T09:31:22;8.52;;;3.53;;
51082;SDS011;37131;42.694;23.350;2022-10-30T09:33:47;9.98;;;4.05;;
51082;SDS011;37131;42.694;23.350;2022-10-30T09:36:13;8.13;;;3.50;;
51082;SDS011;37131;42.694;23.350;2022-10-30T09:38:38;12.82;;;3.67;;
51082;SDS011;37131;42.694;23.350;2022-10-30T09:41:14;11.50;;;3.85;;
51082;SDS011;37131;42.694;23.350;2022-10-30T09:44:16;7.07;;;3.70;;
51082;SDS011;37131;42.694;23.350;2022-10-30T09:47:07;11.73;;;4.20;;
51082;SDS011;37131;42.694;23.350;2022-10-30T09:50:15;10.68;;;3.95;;
51082;SDS011;37131;42.694;23.350;2022-10-30T09:57:48;6.65;;;3.22;;
51082;SDS011;37131;42.694;23.350;2022-10-30T10:00:36;10.77;;;3.92;;
51082;SDS011;37131;42.694;23.350;2022-10-30T10:03:26;11.88;;;3.53;;
51082;SDS011;37131;42.694;23.350;2022-10-30T10:06:01;8.90;;;3.85;;
51082;SDS011;37131;42.694;23.350;2022-10-30T10:11:11;7.95;;;3.10;;
51082;SDS011;37131;42.694;23.350;2022-10-30T10:13:48;6.68;;;2.67;;
51082;SDS011;37131;42.694;23.350;2022-10-30T10:16:26;5.30;;;2.70;;
51082;SDS011;37131;42.694;23.350;2022-10-30T10:18:59;4.45;;;2.50;;
51082;SDS011;37131;42.694;23.350;2022-10-30T10:21:34;8.90;;;2.58;;
51082;SDS011;37131;42.694;23.350;2022-10-30T10:26:56;5.43;;;2.33;;
51082;SDS011;37131;42.694;23.350;2022-10-30T10:38:10;5.63;;;2.47;;
51082;SDS011;37131;42.694;23.350;2022-10-30T10:43:17;6.82;;;2.08;;
51082;SDS011;37131;42.694;23.350;2022-10-30T10:51:56;4.00;;;1.83;;
51082;SDS011;37131;42.694;23.350;2022-10-30T10:54:27;5.75;;;1.95;;
51082;SDS011;37131;42.694;23.350;2022-10-30T10:56:58;5.35;;;1.60;;
51082;SDS011;37131;42.694;23.350;2022-10-30T11:05:03;5.22;;;1.85;;
51082;SDS011;37131;42.694;23.350;2022-10-30T11:07:42;4.78;;;1.73;;
51082;SDS011;37131;42.694;23.350;2022-10-30T11:10:12;3.00;;;1.48;;
51082;SDS011;37131;42.694;23.350;2022-10-30T11:12:39;2.65;;;1.50;;
51082;SDS011;37131;42.694;23.350;2022-10-30T11:15:15;3.53;;;1.20;;
51082;SDS011;37131;42.694;23.350;2022-10-30T11:18:25;4.53;;;1.40;;
51082;SDS011;37131;42.694;23.350;2022-10-30T11:20:43;3.30;;;1.40;;
51082;SDS011;37131;42.694;23.350;2022-10-30T11:25:56;3.38;;;1.30;;
51082;SDS011;37131;42.694;23.350;2022-10-30T11:28:34;3.15;;;1.30;;
51082;SDS011;37131;42.694;23.350;2022-10-30T11:36:49;2.55;;;1.30;;
51082;SDS011;37131;42.694;23.350;2022-10-30T11:39:20;5.22;;;1.40;;
51082;SDS011;37131;42.694;23.350;2022-10-30T11:44:36;2.58;;;0.95;;
51082;SDS011;37131;42.694;23.350;2022-10-30T11:47:03;3.40;;;1.17;;
51082;SDS011;37131;42.694;23.350;2022-10-30T11:52:14;2.95;;;1.05;;
51082;SDS011;37131;42.694;23.350;2022-10-30T11:54:43;2.50;;;1.23;;
51082;SDS011;37131;42.694;23.350;2022-10-30T11:57:20;2.92;;;1.10;;
51082;SDS011;37131;42.694;23.350;2022-10-30T11:59:55;1.30;;;0.80;;
51082;SDS011;37131;42.694;23.350;2022-10-30T12:02:24;3.47;;;1.00;;
51082;SDS011;37131;42.694;23.350;2022-10-30T12:04:53;1.83;;;0.90;;
51082;SDS011;37131;42.694;23.350;2022-10-30T12:07:26;2.65;;;1.00;;
51082;SDS011;37131;42.694;23.350;2022-10-30T12:09:55;2.28;;;1.00;;
51082;SDS011;37131;42.694;23.350;2022-10-30T12:15:09;2.70;;;0.60;;
51082;SDS011;37131;42.694;23.350;2022-10-30T12:17:52;4.03;;;0.77;;
51082;SDS011;37131;42.694;23.350;2022-10-30T12:20:25;2.15;;;0.70;;
51082;SDS011;37131;42.694;23.350;2022-10-30T12:22:51;2.17;;;0.50;;
51082;SDS011;37131;42.694;23.350;2022-10-30T12:28:06;3.92;;;0.75;;
51082;SDS011;37131;42.694;23.350;2022-10-30T12:30:47;2.15;;;0.70;;
51082;SDS011;37131;42.694;23.350;2022-10-30T12:35:58;3.47;;;0.80;;
51082;SDS011;37131;42.694;23.350;2022-10-30T12:38:33;2.25;;;0.63;;
51082;SDS011;37131;42.694;23.350;2022-10-30T12:41:21;1.70;;;0.70;;
51082;SDS011;37131;42.694;23.350;2022-10-30T12:46:40;2.85;;;0.93;;
51082;SDS011;37131;42.694;23.350;2022-10-30T12:52:02;2.30;;;0.88;;
51082;SDS011;37131;42.694;23.350;2022-10-30T12:57:35;2.50;;;0.80;;
51082;SDS011;37131;42.694;23.350;2022-10-30T13:00:12;1.92;;;0.98;;
51082;SDS011;37131;42.694;23.350;2022-10-30T13:14:07;1.30;;;0.52;;
51082;SDS011;37131;42.694;23.350;2022-10-30T13:16:38;1.85;;;0.50;;
51082;SDS011;37131;42.694;23.350;2022-10-30T13:19:04;4.25;;;0.70;;
51082;SDS011;37131;42.694;23.350;2022-10-30T13:24:02;1.48;;;0.50;;
51082;SDS011;37131;42.694;23.350;2022-10-30T13:37:25;1.80;;;0.70;;
51082;SDS011;37131;42.694;23.350;2022-10-30T13:48:49;2.83;;;0.57;;
51082;SDS011;37131;42.694;23.350;2022-10-30T13:56:40;1.88;;;0.63;;
51082;SDS011;37131;42.694;23.350;2022-10-30T14:04:48;1.58;;;0.47;;
51082;SDS011;37131;42.694;23.350;2022-10-30T14:09:58;1.63;;;0.57;;
51082;SDS011;37131;42.694;23.350;2022-10-30T14:12:45;3.40;;;0.55;;
51082;SDS011;37131;42.694;23.350;2022-10-30T14:15:41;2.88;;;0.47;;
51082;SDS011;37131;42.694;23.350;2022-10-30T14:20:43;1.95;;;0.57;;
51082;SDS011;37131;42.694;23.350;2022-10-30T14:23:20;7.25;;;0.63;;
51082;SDS011;37131;42.694;23.350;2022-10-30T14:28:49;1.42;;;0.55;;
51082;SDS011;37131;42.694;23.350;2022-10-30T14:31:16;3.75;;;0.63;;
51082;SDS011;37131;42.694;23.350;2022-10-30T14:33:49;1.60;;;0.70;;
51082;SDS011;37131;42.694;23.350;2022-10-30T14:36:25;4.95;;;0.80;;
51082;SDS011;37131;42.694;23.350;2022-10-30T14:49:46;1.65;;;0.60;;
51082;SDS011;37131;42.694;23.350;2022-10-30T15:13:33;2.78;;;1.23;;
51082;SDS011;37131;42.694;23.350;2022-10-30T15:16:03;1.98;;;0.98;;
51082;SDS011;37131;42.694;23.350;2022-10-30T15:18:31;3.70;;;1.05;;
51082;SDS011;37131;42.694;23.350;2022-10-30T15:21:02;4.90;;;1.52;;
51082;SDS011;37131;42.694;23.350;2022-10-30T15:23:30;3.00;;;0.90;;
51082;SDS011;37131;42.694;23.350;2022-10-30T15:25:59;4.35;;;1.25;;
51082;SDS011;37131;42.694;23.350;2022-10-30T15:28:29;5.30;;;0.95;;
51082;SDS011;37131;42.694;23.350;2022-10-30T15:33:25;4.47;;;0.80;;
51082;SDS011;37131;42.694;23.350;2022-10-30T15:35:50;2.90;;;0.80;;
51082;SDS011;37131;42.694;23.350;2022-10-30T15:38:16;1.83;;;0.98;;
51082;SDS011;37131;42.694;23.350;2022-10-30T15:40:41;2.90;;;1.33;;
51082;SDS011;37131;42.694;23.350;2022-10-30T15:43:09;4.88;;;1.00;;
51082;SDS011;37131;42.694;23.350;2022-10-30T15:45:38;2.03;;;0.80;;
51082;SDS011;37131;42.694;23.350;2022-10-30T15:51:20;6.63;;;1.10;;
51082;SDS011;37131;42.694;23.350;2022-10-30T15:53:44;2.25;;;1.40;;
51082;SDS011;37131;42.694;23.350;2022-10-30T15:56:21;3.95;;;1.40;;
51082;SDS011;37131;42.694;23.350;2022-10-30T15:58:50;3.22;;;1.10;;
51082;SDS011;37131;42.694;23.350;2022-10-30T16:01:33;3.25;;;1.48;;
51082;SDS011;37131;42.694;23.350;2022-10-30T16:06:47;5.13;;;1.23;;
51082;SDS011;37131;42.694;23.350;2022-10-30T16:09:18;6.97;;;1.58;;
51082;SDS011;37131;42.694;23.350;2022-10-30T16:11:44;4.55;;;1.23;;
51082;SDS011;37131;42.694;23.350;2022-10-30T16:14:12;2.58;;;1.10;;
51082;SDS011;37131;42.694;23.350;2022-10-30T16:16:39;4.28;;;1.23;;
51082;SDS011;37131;42.694;23.350;2022-10-30T16:19:07;1.95;;;0.98;;
51082;SDS011;37131;42.694;23.350;2022-10-30T16:21:32;2.92;;;1.20;;
51082;SDS011;37131;42.694;23.350;2022-10-30T16:24:00;4.40;;;1.60;;
51082;SDS011;37131;42.694;23.350;2022-10-30T16:26:31;6.53;;;1.38;;
51082;SDS011;37131;42.694;23.350;2022-10-30T16:28:59;5.30;;;1.20;;
51082;SDS011;37131;42.694;23.350;2022-10-30T16:31:32;3.08;;;1.25;;
51082;SDS011;37131;42.694;23.350;2022-10-30T16:33:58;2.35;;;1.00;;
51082;SDS011;37131;42.694;23.350;2022-10-30T16:36:24;4.15;;;1.27;;
51082;SDS011;37131;42.694;23.350;2022-10-30T16:38:50;3.47;;;1.17;;
51082;SDS011;37131;42.694;23.350;2022-10-30T16:41:16;4.97;;;1.00;;
51082;SDS011;37131;42.694;23.350;2022-10-30T16:43:43;4.15;;;1.20;;
51082;SDS011;37131;42.694;23.350;2022-10-30T16:46:38;3.35;;;1.20;;
51082;SDS011;37131;42.694;23.350;2022-10-30T16:49:15;3.35;;;1.38;;
51082;SDS011;37131;42.694;23.350;2022-10-30T16:51:43;9.25;;;1.25;;
51082;SDS011;37131;42.694;23.350;2022-10-30T16:54:17;4.68;;;1.52;;
51082;SDS011;37131;42.694;23.350;2022-10-30T16:56:46;2.40;;;1.30;;
51082;SDS011;37131;42.694;23.350;2022-10-30T16:59:27;4.00;;;1.35;;
51082;SDS011;37131;42.694;23.350;2022-10-30T17:01:57;4.03;;;1.42;;
51082;SDS011;37131;42.694;23.350;2022-10-30T17:04:29;3.22;;;1.15;;
51082;SDS011;37131;42.694;23.350;2022-10-30T17:07:06;4.60;;;1.30;;
51082;SDS011;37131;42.694;23.350;2022-10-30T17:09:40;2.67;;;1.15;;
51082;SDS011;37131;42.694;23.350;2022-10-30T17:12:11;5.18;;;1.42;;
51082;SDS011;37131;42.694;23.350;2022-10-30T17:14:54;5.00;;;1.58;;
51082;SDS011;37131;42.694;23.350;2022-10-30T17:17:37;3.88;;;1.40;;
51082;SDS011;37131;42.694;23.350;2022-10-30T17:22:30;4.85;;;1.63;;
51082;SDS011;37131;42.694;23.350;2022-10-30T17:24:57;4.68;;;1.77;;
51082;SDS011;37131;42.694;23.350;2022-10-30T17:27:27;13.60;;;1.85;;
51082;SDS011;37131;42.694;23.350;2022-10-30T17:29:54;3.25;;;1.40;;
51082;SDS011;37131;42.694;23.350;2022-10-30T17:32:40;4.80;;;1.48;;
51082;SDS011;37131;42.694;23.350;2022-10-30T17:35:14;8.85;;;2.05;;
51082;SDS011;37131;42.694;23.350;2022-10-30T17:37:42;3.40;;;1.55;;
51082;SDS011;37131;42.694;23.350;2022-10-30T17:40:07;3.75;;;1.60;;
51082;SDS011;37131;42.694;23.350;2022-10-30T17:42:33;8.02;;;2.10;;